Time;durP1;ratioP1;P1;durP2;ratioP2;P2;SDS_P1;SDS_P2;PMS_P1;PMS_P2;Temp;Humidity;BMP_temperature;BMP_pressure;BME280_temperature;BME280_humidity;BME280_pressure;Samples;Min_cycle;Max_cycle;Signal;HPM_P1;HPM_P2
2024/02/14 00:00:53;;;;;;;;;;;;;;;19.45;48.67;101401.06;2067725;28;5995;-67
2024/02/14 00:01:55;;;;;;;;;;;;;;;19.44;48.54;101397.41;2071205;28;2019;-66
2024/02/14 00:02:56;;;;;;;;;;;;;;;19.45;48.78;101398.91;2070837;28;2208;-66
2024/02/14 00:03:58;;;;;;;;;;;;;;;19.46;48.76;101400.41;2069114;28;2050;-66
2024/02/14 00:04:59;;;;;;;;;;;;;;;19.45;48.83;101392.44;2068926;28;1654;-67
2024/02/14 00:06:02;;;;;;;;;;;;;;;19.46;48.87;101394.66;2070626;28;1509;-67
2024/02/14 00:07:04;;;;;;;;;;;;;;;19.46;48.82;101391.78;2067640;28;2177;-66
2024/02/14 00:08:07;;;;;;;;;;;;;;;19.46;48.90;101399.66;2069712;28;1545;-66
2024/02/14 00:09:08;;;;;;;;;;;;;;;19.47;48.85;101395.44;2067566;28;2102;-67
2024/02/14 00:10:10;;;;;;;;;;;;;;;19.46;48.89;101403.28;2068827;28;2196;-66
2024/02/14 00:11:11;;;;;;;;;;;;;;;19.48;48.80;101396.91;2071068;28;1665;-66
2024/02/14 00:12:13;;;;;;;;;;;;;;;19.46;48.66;101394.66;2069641;28;1692;-67
2024/02/14 00:13:14;;;;;;;;;;;;;;;19.48;48.78;101396.16;2069560;28;2106;-67
2024/02/14 00:14:16;;;;;;;;;;;;;;;19.46;48.88;101402.53;2067304;28;2023;-65
2024/02/14 00:15:17;;;;;;;;;;;;;;;19.46;48.77;101393.91;2069447;28;2451;-66
2024/02/14 00:16:18;;;;;;;;;;;;;;;19.46;48.77;101399.66;2069580;28;1988;-66
2024/02/14 00:17:20;;;;;;;;;;;;;;;19.47;48.79;101395.44;2069708;28;2137;-66
2024/02/14 00:18:22;;;;;;;;;;;;;;;19.47;48.77;101395.44;2071517;28;2376;-66
2024/02/14 00:19:24;;;;;;;;;;;;;;;19.48;48.87;101390.44;2068592;28;2077;-66
2024/02/14 00:20:25;;;;;;;;;;;;;;;19.47;48.97;101392.56;2069866;28;2157;-66
2024/02/14 00:21:27;;;;;;;;;;;;;;;19.47;48.85;101398.31;2069961;28;1534;-66
2024/02/14 00:22:28;;;;;;;;;;;;;;;19.46;48.91;101399.66;2069261;28;2116;-66
2024/02/14 00:23:30;;;;;;;;;;;;;;;19.45;48.96;101398.91;2065843;28;1966;-66
2024/02/14 00:24:32;;;;;;;;;;;;;;;19.46;48.92;101393.91;2070184;28;1617;-66
2024/02/14 00:25:33;;;;;;;;;;;;;;;19.46;48.86;101399.66;2068722;28;2220;-66
2024/02/14 00:26:35;;;;;;;;;;;;;;;19.46;48.76;101399.66;2071334;28;1617;-66
2024/02/14 00:27:37;;;;;;;;;;;;;;;19.43;48.79;101395.94;2068255;28;2214;-66
2024/02/14 00:28:38;;;;;;;;;;;;;;;19.45;48.74;101401.78;2068536;28;1867;-66
2024/02/14 00:29:40;;;;;;;;;;;;;;;19.45;48.69;101393.19;2068468;28;2106;-66
2024/02/14 00:30:41;;;;;;;;;;;;;;;19.44;48.70;101394.53;2068170;28;6084;-66
2024/02/14 00:31:44;;;;;;;;;;;;;;;19.44;48.70;101393.78;2069743;28;2352;-66
2024/02/14 00:32:45;;;;;;;;;;;;;;;19.44;48.66;101393.78;2068795;28;1971;-66
2024/02/14 00:33:47;;;;;;;;;;;;;;;19.44;48.72;101399.53;2070367;28;2097;-67
2024/02/14 00:34:49;;;;;;;;;;;;;;;19.44;48.76;101391.66;2069885;28;1664;-66
2024/02/14 00:35:51;;;;;;;;;;;;;;;19.44;48.77;101393.78;2069728;28;2073;-66
2024/02/14 00:36:53;;;;;;;;;;;;;;;19.44;48.77;101391.66;2068713;28;2051;-67
2024/02/14 00:37:54;;;;;;;;;;;;;;;19.45;48.75;101398.19;2068239;28;2087;-66
2024/02/14 00:38:56;;;;;;;;;;;;;;;19.45;48.87;101398.19;2068698;28;1803;-67
2024/02/14 00:39:57;;;;;;;;;;;;;;;19.46;48.80;101405.41;2067353;28;2102;-66
2024/02/14 00:40:59;;;;;;;;;;;;;;;19.45;48.78;101404.66;2070082;28;2250;-67
2024/02/14 00:42:00;;;;;;;;;;;;;;;19.44;48.84;101400.28;2068429;28;2066;-67
2024/02/14 00:43:02;;;;;;;;;;;;;;;19.45;48.85;101395.31;2069949;28;2101;-66
2024/02/14 00:44:03;;;;;;;;;;;;;;;19.46;48.90;101408.28;2070052;28;2211;-67
2024/02/14 00:45:07;;;;;;;;;;;;;;;19.46;48.81;101399.66;2072262;28;1680;-66
2024/02/14 00:46:09;;;;;;;;;;;;;;;19.47;48.90;101406.91;2069097;28;2093;-66
2024/02/14 00:47:10;;;;;;;;;;;;;;;19.46;48.85;101399.66;2065561;28;2132;-66
2024/02/14 00:48:12;;;;;;;;;;;;;;;19.46;49.00;101399.66;2069607;28;1670;-66
2024/02/14 00:49:13;;;;;;;;;;;;;;;19.48;49.00;101408.41;2069814;28;2216;-67
2024/02/14 00:50:15;;;;;;;;;;;;;;;19.49;48.92;101400.53;2069421;28;2434;-66
2024/02/14 00:51:16;;;;;;;;;;;;;;;19.46;49.06;101400.41;2068795;28;1627;-66
2024/02/14 00:52:18;;;;;;;;;;;;;;;19.48;48.98;101401.91;2069859;28;1584;-66
2024/02/14 00:53:19;;;;;;;;;;;;;;;19.47;48.93;101401.16;2068837;28;2116;-66
2024/02/14 00:54:21;;;;;;;;;;;;;;;19.47;48.80;101406.91;2069964;28;1914;-66
2024/02/14 00:55:22;;;;;;;;;;;;;;;19.49;48.80;101400.53;2069468;28;1625;-67
2024/02/14 00:56:24;;;;;;;;;;;;;;;19.48;48.88;101405.53;2069099;28;2205;-66
2024/02/14 00:57:25;;;;;;;;;;;;;;;19.48;48.80;101402.66;2070327;28;2079;-66
2024/02/14 00:58:27;;;;;;;;;;;;;;;19.48;48.94;101408.41;2069876;28;2139;-66
2024/02/14 00:59:28;;;;;;;;;;;;;;;19.46;48.83;101406.16;2070854;28;2196;-67
2024/02/14 01:00:31;;;;;;;;;;;;;;;19.46;48.89;101405.41;2068623;28;7407;-66
2024/02/14 01:01:35;;;;;;;;;;;;;;;19.46;48.79;101399.66;2068723;28;2109;-67
2024/02/14 01:02:37;;;;;;;;;;;;;;;19.45;48.75;101403.94;2071567;28;1644;-66
2024/02/14 01:03:38;;;;;;;;;;;;;;;19.46;48.90;101400.41;2070840;28;1801;-66
2024/02/14 01:04:39;;;;;;;;;;;;;;;19.45;48.85;101396.03;2069345;28;2043;-66
2024/02/14 01:05:41;;;;;;;;;;;;;;;19.45;48.89;101398.19;2070986;28;2231;-66
2024/02/14 01:06:42;;;;;;;;;;;;;;;19.45;48.79;101398.19;2070036;28;1973;-66
2024/02/14 01:07:46;;;;;;;;;;;;;;;19.45;48.93;101392.44;2069249;28;2039;-67
2024/02/14 01:08:47;;;;;;;;;;;;;;;19.45;48.75;101403.94;2067950;28;2025;-67
2024/02/14 01:09:49;;;;;;;;;;;;;;;19.44;48.83;101394.53;2068384;28;2450;-66
2024/02/14 01:10:51;;;;;;;;;;;;;;;19.45;48.88;101398.19;2070479;28;2169;-67
2024/02/14 01:11:53;;;;;;;;;;;;;;;19.44;48.85;101391.66;2069419;28;1597;-66
2024/02/14 01:12:55;;;;;;;;;;;;;;;19.45;48.76;101398.19;2069862;28;2099;-67
2024/02/14 01:13:56;;;;;;;;;;;;;;;19.45;48.97;101398.19;2068315;28;2124;-66
2024/02/14 01:14:58;;;;;;;;;;;;;;;19.43;48.85;101395.94;2069351;28;1982;-66
2024/02/14 01:15:59;;;;;;;;;;;;;;;19.43;48.71;101392.31;2071144;28;2074;-67
2024/02/14 01:17:00;;;;;;;;;;;;;;;19.43;48.63;101401.66;2071656;28;1744;-66
2024/02/14 01:18:02;;;;;;;;;;;;;;;19.43;48.76;101395.19;2067805;28;2271;-66
2024/02/14 01:19:03;;;;;;;;;;;;;;;19.43;48.72;101395.94;2069220;28;2429;-66
2024/02/14 01:20:08;;;;;;;;;;;;;;;19.45;48.81;101392.44;2069073;28;2125;-66
2024/02/14 01:21:10;;;;;;;;;;;;;;;19.45;48.78;101386.69;2067917;28;2085;-66
2024/02/14 01:22:11;;;;;;;;;;;;;;;19.44;48.93;101391.66;2070764;28;2372;-66
2024/02/14 01:23:12;;;;;;;;;;;;;;;19.45;48.99;101389.56;2071830;28;1655;-66
2024/02/14 01:24:14;;;;;;;;;;;;;;;19.44;49.01;101388.78;2067139;28;2117;-67
2024/02/14 01:25:15;;;;;;;;;;;;;;;19.46;48.96;101391.03;2070443;28;1600;-66
2024/02/14 01:26:17;;;;;;;;;;;;;;;19.45;48.86;101378.81;2070045;28;2013;-66
2024/02/14 01:27:18;;;;;;;;;;;;;;;19.46;48.93;101385.31;2070184;28;1704;-67
2024/02/14 01:28:20;;;;;;;;;;;;;;;19.48;49.09;101384.69;2068171;28;2433;-67
2024/02/14 01:29:23;;;;;;;;;;;;;;;19.46;49.00;101380.28;2069674;28;1768;-67
2024/02/14 01:30:25;;;;;;;;;;;;;;;19.47;48.89;101383.94;2069021;28;6115;-66
2024/02/14 01:31:26;;;;;;;;;;;;;;;19.46;48.96;101376.69;2071051;28;2200;-66
2024/02/14 01:32:29;;;;;;;;;;;;;;;19.46;48.98;101376.69;2070843;28;2101;-67
2024/02/14 01:33:31;;;;;;;;;;;;;;;19.46;48.97;101376.69;2069397;28;2110;-67
2024/02/14 01:34:33;;;;;;;;;;;;;;;19.46;48.90;101373.81;2068765;28;2150;-66
2024/02/14 01:35:34;;;;;;;;;;;;;;;19.46;48.94;101365.94;2070606;28;2565;-66
2024/02/14 01:36:38;;;;;;;;;;;;;;;19.47;48.90;101372.44;2068125;28;2241;-66
2024/02/14 01:37:40;;;;;;;;;;;;;;;19.47;48.87;101366.72;2069852;28;2157;-66
2024/02/14 01:38:42;;;;;;;;;;;;;;;19.46;48.98;101368.06;2066476;28;2359;-66
2024/02/14 01:39:44;;;;;;;;;;;;;;;19.46;49.01;101365.19;2068003;28;1680;-66
2024/02/14 01:40:47;;;;;;;;;;;;;;;19.46;48.89;101365.94;2066690;28;1657;-67
2024/02/14 01:41:48;;;;;;;;;;;;;;;19.46;48.92;101373.81;2070346;28;2251;-66
2024/02/14 01:42:52;;;;;;;;;;;;;;;19.45;48.73;101360.84;2067815;28;1744;-66
2024/02/14 01:43:53;;;;;;;;;;;;;;;19.46;48.83;101365.19;2070006;28;2078;-66
2024/02/14 01:44:55;;;;;;;;;;;;;;;19.45;48.78;101369.47;2070390;28;1851;-67
2024/02/14 01:46:03;;;;;;;;;;;;;;;19.45;48.88;101369.47;2070164;28;2134;-67
2024/02/14 01:47:06;;;;;;;;;;;;;;;19.45;48.86;101369.47;2069158;28;1779;-66
2024/02/14 01:48:09;;;;;;;;;;;;;;;19.45;48.83;101375.19;2068529;28;2107;-66
2024/02/14 01:49:13;;;;;;;;;;;;;;;19.44;48.70;101367.94;2066287;28;2184;-66
2024/02/14 01:50:16;;;;;;;;;;;;;;;19.43;48.69;101375.81;2069115;28;1858;-66
2024/02/14 01:51:19;;;;;;;;;;;;;;;19.44;48.84;101367.94;2069055;28;1855;-66
2024/02/14 01:52:22;;;;;;;;;;;;;;;19.42;48.77;101365.72;2071118;28;1609;-67
2024/02/14 01:53:25;;;;;;;;;;;;;;;19.42;48.74;101365.72;2064957;28;2047;-66
2024/02/14 01:54:27;;;;;;;;;;;;;;;19.43;48.71;101369.34;2070968;28;1585;-66
2024/02/14 01:55:28;;;;;;;;;;;;;;;19.43;48.74;101366.47;2070082;28;2149;-67
2024/02/14 01:56:30;;;;;;;;;;;;;;;19.43;48.80;101363.59;2068029;28;2235;-67
2024/02/14 01:57:32;;;;;;;;;;;;;;;19.42;48.76;101359.22;2070490;28;1859;-67
2024/02/14 01:58:34;;;;;;;;;;;;;;;19.43;48.78;101363.59;2069070;28;2100;-67
2024/02/14 01:59:35;;;;;;;;;;;;;;;19.43;48.75;101357.84;2070076;28;1644;-66
2024/02/14 02:00:37;;;;;;;;;;;;;;;19.44;48.72;101356.47;2070798;28;6082;-66
2024/02/14 02:01:38;;;;;;;;;;;;;;;19.44;48.88;101350.72;2067569;28;1668;-67
2024/02/14 02:02:40;;;;;;;;;;;;;;;19.44;48.92;101365.81;2071570;28;1986;-66
2024/02/14 02:03:41;;;;;;;;;;;;;;;19.44;48.90;101360.06;2068319;28;2227;-66
2024/02/14 02:04:43;;;;;;;;;;;;;;;19.45;48.98;101355.09;2070514;28;2149;-66
2024/02/14 02:05:44;;;;;;;;;;;;;;;19.45;49.06;101357.97;2070165;28;2074;-66
2024/02/14 02:06:46;;;;;;;;;;;;;;;19.45;48.95;101363.72;2070547;28;1672;-67
2024/02/14 02:07:48;;;;;;;;;;;;;;;19.46;49.00;101350.84;2067940;28;2164;-66
2024/02/14 02:08:50;;;;;;;;;;;;;;;19.46;49.05;101347.97;2070082;28;2059;-66
2024/02/14 02:09:51;;;;;;;;;;;;;;;19.46;49.05;101353.72;2070653;28;2086;-66
2024/02/14 02:10:52;;;;;;;;;;;;;;;19.46;49.05;101347.97;2069551;28;2086;-66
2024/02/14 02:11:55;;;;;;;;;;;;;;;19.45;48.79;101349.34;2067864;28;2100;-66
2024/02/14 02:12:58;;;;;;;;;;;;;;;19.45;48.99;101346.47;2068571;28;2091;-66
2024/02/14 02:14:00;;;;;;;;;;;;;;;19.45;49.03;101346.47;2068918;28;2070;-67
2024/02/14 02:15:02;;;;;;;;;;;;;;;19.44;48.96;101347.84;2068061;28;2130;-66
2024/02/14 02:16:04;;;;;;;;;;;;;;;19.45;48.90;101352.97;2067242;28;2122;-66
2024/02/14 02:17:08;;;;;;;;;;;;;;;19.44;48.92;101344.97;2071119;28;2058;-67
2024/02/14 02:18:09;;;;;;;;;;;;;;;19.44;48.86;101350.72;2068844;28;2133;-65
2024/02/14 02:19:11;;;;;;;;;;;;;;;19.44;48.92;101339.22;2066228;28;1859;-66
2024/02/14 02:20:13;;;;;;;;;;;;;;;19.44;48.97;101344.97;2069965;28;1760;-66
2024/02/14 02:21:14;;;;;;;;;;;;;;;19.44;48.85;101337.09;2069577;28;2093;-66
2024/02/14 02:22:16;;;;;;;;;;;;;;;19.44;48.80;101339.22;2069644;28;2082;-66
2024/02/14 02:23:17;;;;;;;;;;;;;;;19.44;48.78;101350.72;2066591;28;2015;-67
2024/02/14 02:24:18;;;;;;;;;;;;;;;19.44;48.88;101344.97;2071049;28;1716;-67
2024/02/14 02:25:24;;;;;;;;;;;;;;;19.44;48.76;101344.97;2070274;28;1657;-67
2024/02/14 02:26:26;;;;;;;;;;;;;;;19.42;48.85;101345.63;2069460;28;2281;-67
2024/02/14 02:27:27;;;;;;;;;;;;;;;19.42;48.83;101342.75;2067850;28;2158;-66
2024/02/14 02:28:29;;;;;;;;;;;;;;;19.43;48.76;101337.75;2065126;28;2201;-66
2024/02/14 02:29:32;;;;;;;;;;;;;;;19.41;48.81;101341.25;2067728;28;1673;-66
2024/02/14 02:30:35;;;;;;;;;;;;;;;19.41;48.88;101340.50;2065457;28;6024;-66
2024/02/14 02:31:37;;;;;;;;;;;;;;;19.42;48.81;101341.97;2066930;28;2140;-66
2024/02/14 02:32:39;;;;;;;;;;;;;;;19.41;48.92;101334.75;2067036;28;2092;-67
2024/02/14 02:33:40;;;;;;;;;;;;;;;19.40;48.81;101334.00;2068834;28;2106;-67
2024/02/14 02:34:42;;;;;;;;;;;;;;;19.41;48.83;101334.75;2071051;28;1661;-66
2024/02/14 02:35:45;;;;;;;;;;;;;;;19.41;48.82;101334.75;2067736;28;2183;-66
2024/02/14 02:36:49;;;;;;;;;;;;;;;19.41;48.88;101334.75;2067888;28;1715;-67
2024/02/14 02:37:50;;;;;;;;;;;;;;;19.40;48.87;101333.25;2069828;28;1850;-67
2024/02/14 02:38:52;;;;;;;;;;;;;;;19.41;48.84;101329.00;2067484;28;2081;-67
2024/02/14 02:39:53;;;;;;;;;;;;;;;19.41;48.90;101337.63;2071018;28;1686;-66
2024/02/14 02:40:54;;;;;;;;;;;;;;;19.42;48.84;101328.38;2065459;28;2066;-66
2024/02/14 02:41:57;;;;;;;;;;;;;;;19.42;48.91;101336.22;2067383;28;2078;-66
2024/02/14 02:43:00;;;;;;;;;;;;;;;19.42;48.98;101328.38;2068689;28;2373;-66
2024/02/14 02:44:01;;;;;;;;;;;;;;;19.41;48.95;101329.00;2067698;28;2003;-66
2024/02/14 02:45:05;;;;;;;;;;;;;;;19.43;48.85;101332.00;2069494;28;2451;-66
2024/02/14 02:46:09;;;;;;;;;;;;;;;19.44;48.91;101333.47;2070216;28;2521;-67
2024/02/14 02:47:12;;;;;;;;;;;;;;;19.43;48.94;101329.88;2068343;28;1756;-67
2024/02/14 02:48:13;;;;;;;;;;;;;;;19.44;48.85;101327.72;2066954;28;2171;-66
2024/02/14 02:49:15;;;;;;;;;;;;;;;19.43;48.85;101321.25;2068411;28;2509;-66
2024/02/14 02:50:17;;;;;;;;;;;;;;;19.44;48.98;101324.88;2067921;28;2137;-66
2024/02/14 02:51:19;;;;;;;;;;;;;;;19.43;48.96;101320.50;2070645;28;1717;-66
2024/02/14 02:52:21;;;;;;;;;;;;;;;19.44;49.08;101327.72;2072433;28;1852;-66
2024/02/14 02:53:23;;;;;;;;;;;;;;;19.43;49.06;101323.38;2069714;28;2057;-66
2024/02/14 02:54:25;;;;;;;;;;;;;;;19.43;48.95;101320.50;2068396;28;1846;-67
2024/02/14 02:55:26;;;;;;;;;;;;;;;19.42;48.91;101319.00;2070177;28;2093;-66
2024/02/14 02:56:29;;;;;;;;;;;;;;;19.42;48.76;101319.78;2071810;28;2006;-66
2024/02/14 02:57:32;;;;;;;;;;;;;;;19.42;48.92;101314.03;2066388;28;2012;-66
2024/02/14 02:58:33;;;;;;;;;;;;;;;19.42;48.96;101325.50;2069498;28;2142;-66
2024/02/14 02:59:35;;;;;;;;;;;;;;;19.41;48.91;101318.25;2067986;28;2184;-66
2024/02/14 03:00:37;;;;;;;;;;;;;;;19.41;48.78;101311.78;2066393;28;6102;-66
2024/02/14 03:01:38;;;;;;;;;;;;;;;19.41;48.74;101320.38;2066138;28;1705;-67
2024/02/14 03:02:42;;;;;;;;;;;;;;;19.41;48.74;101311.78;2067665;28;1684;-66
2024/02/14 03:03:44;;;;;;;;;;;;;;;19.41;48.83;101315.38;2067569;28;2178;-67
2024/02/14 03:04:46;;;;;;;;;;;;;;;19.41;48.85;101320.38;2070347;28;1994;-67
2024/02/14 03:05:55;;;;;;;;;;;;;;;19.41;48.72;101317.53;2070351;28;2316;-66
2024/02/14 03:06:56;;;;;;;;;;;;;;;19.40;48.81;101316.78;2068765;28;1998;-67
2024/02/14 03:07:58;;;;;;;;;;;;;;;19.40;48.87;101313.91;2068871;28;2062;-66
2024/02/14 03:08:59;;;;;;;;;;;;;;;19.40;48.88;101304.53;2069520;28;2134;-67
2024/02/14 03:10:03;;;;;;;;;;;;;;;19.40;48.85;101313.13;2067930;28;2057;-67
2024/02/14 03:11:05;;;;;;;;;;;;;;;19.39;48.69;101315.25;2070600;28;1752;-67
2024/02/14 03:12:08;;;;;;;;;;;;;;;19.38;48.57;101301.56;2067349;28;1829;-66
2024/02/14 03:13:11;;;;;;;;;;;;;;;19.39;48.74;101305.91;2066955;28;2055;-66
2024/02/14 03:14:13;;;;;;;;;;;;;;;19.39;48.71;101300.16;2068738;28;2200;-67
2024/02/14 03:15:15;;;;;;;;;;;;;;;19.39;48.77;101297.28;2065468;28;2137;-67
2024/02/14 03:16:17;;;;;;;;;;;;;;;19.38;48.56;101302.28;2069200;28;1976;-66
2024/02/14 03:17:18;;;;;;;;;;;;;;;19.38;48.76;101299.44;2070338;28;2213;-66
2024/02/14 03:18:20;;;;;;;;;;;;;;;19.38;48.71;101302.28;2070204;28;2152;-67
2024/02/14 03:19:22;;;;;;;;;;;;;;;19.39;48.56;101298.03;2068537;28;1721;-67
2024/02/14 03:20:23;;;;;;;;;;;;;;;19.40;48.87;101298.78;2067162;28;1669;-67
2024/02/14 03:21:25;;;;;;;;;;;;;;;19.40;48.76;101293.03;2070518;28;1852;-67
2024/02/14 03:22:26;;;;;;;;;;;;;;;19.40;48.96;101298.78;2068477;28;2141;-65
2024/02/14 03:23:27;;;;;;;;;;;;;;;19.40;48.91;101293.03;2067039;28;1701;-66
2024/02/14 03:24:29;;;;;;;;;;;;;;;19.41;48.85;101288.81;2067563;28;2224;-66
2024/02/14 03:25:30;;;;;;;;;;;;;;;19.41;48.92;101285.94;2069324;28;2045;-66
2024/02/14 03:26:33;;;;;;;;;;;;;;;19.40;48.77;101287.28;2066491;28;2130;-66
2024/02/14 03:27:35;;;;;;;;;;;;;;;19.42;48.87;101290.28;2068160;28;2099;-66
2024/02/14 03:28:36;;;;;;;;;;;;;;;19.42;48.99;101296.03;2069797;28;2189;-66
2024/02/14 03:29:38;;;;;;;;;;;;;;;19.42;48.93;101290.28;2069537;28;2111;-66
2024/02/14 03:30:40;;;;;;;;;;;;;;;19.41;48.96;101283.78;2065619;28;6015;-66
2024/02/14 03:31:43;;;;;;;;;;;;;;;19.41;49.01;101288.81;2070399;28;2166;-66
2024/02/14 03:32:45;;;;;;;;;;;;;;;19.41;48.95;101280.19;2070048;28;2348;-66
2024/02/14 03:33:46;;;;;;;;;;;;;;;19.41;48.84;101271.56;2069090;28;1883;-66
2024/02/14 03:34:48;;;;;;;;;;;;;;;19.42;48.96;101273.06;2069665;28;2345;-66
2024/02/14 03:35:49;;;;;;;;;;;;;;;19.40;48.94;101276.56;2067573;28;2098;-66
2024/02/14 03:36:51;;;;;;;;;;;;;;;19.41;48.75;101274.44;2068969;28;1834;-66
2024/02/14 03:37:53;;;;;;;;;;;;;;;19.40;48.95;101276.56;2066339;28;2170;-66
2024/02/14 03:38:54;;;;;;;;;;;;;;;19.40;48.86;101275.81;2070995;28;1764;-67
2024/02/14 03:39:56;;;;;;;;;;;;;;;19.40;48.81;101272.94;2070526;28;2202;-67
2024/02/14 03:40:58;;;;;;;;;;;;;;;19.41;48.74;101289.53;2071611;28;2633;-67
2024/02/14 03:42:02;;;;;;;;;;;;;;;19.41;48.85;101274.44;2071796;28;1788;-67
2024/02/14 03:43:05;;;;;;;;;;;;;;;19.41;48.84;101280.91;2067689;28;2196;-67
2024/02/14 03:44:06;;;;;;;;;;;;;;;19.40;48.85;101276.56;2072365;28;1797;-66
2024/02/14 03:45:08;;;;;;;;;;;;;;;19.41;48.95;101283.06;2069898;28;2205;-66
2024/02/14 03:46:12;;;;;;;;;;;;;;;19.42;48.76;101278.78;2069440;28;2123;-66
2024/02/14 03:47:13;;;;;;;;;;;;;;;19.41;48.77;101283.78;2069794;28;1836;-66
2024/02/14 03:48:15;;;;;;;;;;;;;;;19.42;48.78;101278.78;2072208;28;2141;-66
2024/02/14 03:49:17;;;;;;;;;;;;;;;19.42;48.58;101275.91;2070000;28;2124;-67
2024/02/14 03:50:18;;;;;;;;;;;;;;;19.43;48.80;101274.56;2068450;28;2159;-66
2024/02/14 03:51:20;;;;;;;;;;;;;;;19.43;48.93;101269.56;2070455;28;2439;-66
2024/02/14 03:52:22;;;;;;;;;;;;;;;19.43;48.82;101269.56;2068544;28;2094;-66
2024/02/14 03:53:23;;;;;;;;;;;;;;;19.44;48.93;101271.03;2069280;28;2440;-67
2024/02/14 03:54:25;;;;;;;;;;;;;;;19.46;48.90;101273.28;2070178;28;2130;-67
2024/02/14 03:55:26;;;;;;;;;;;;;;;19.45;48.83;101277.56;2069749;28;2160;-67
2024/02/14 03:56:27;;;;;;;;;;;;;;;19.45;48.83;101277.56;2068237;28;1907;-66
2024/02/14 03:57:29;;;;;;;;;;;;;;;19.46;48.80;101279.03;2070996;28;1919;-66
2024/02/14 03:58:31;;;;;;;;;;;;;;;19.45;48.83;101278.28;2069653;28;2128;-66
2024/02/14 03:59:32;;;;;;;;;;;;;;;19.47;48.75;101286.28;2070214;28;2102;-67
2024/02/14 04:00:35;;;;;;;;;;;;;;;19.46;48.89;101284.78;2068384;28;6120;-66
2024/02/14 04:01:36;;;;;;;;;;;;;;;19.47;48.85;101289.16;2071892;28;2094;-66
2024/02/14 04:02:37;;;;;;;;;;;;;;;19.48;48.72;101292.78;2071401;28;1777;-67
2024/02/14 04:03:41;;;;;;;;;;;;;;;19.48;48.85;101287.75;2070709;28;1694;-66
2024/02/14 04:04:43;;;;;;;;;;;;;;;19.49;48.80;101283.50;2067386;28;2054;-67
2024/02/14 04:05:45;;;;;;;;;;;;;;;19.48;48.91;101282.03;2069107;28;2172;-66
2024/02/14 04:06:47;;;;;;;;;;;;;;;19.49;48.83;101288.50;2068802;28;1748;-66
2024/02/14 04:07:52;;;;;;;;;;;;;;;19.49;48.85;101289.25;2071436;28;2078;-66
2024/02/14 04:08:53;;;;;;;;;;;;;;;19.50;48.81;101287.13;2070025;28;1828;-66
2024/02/14 04:09:55;;;;;;;;;;;;;;;19.49;48.76;101283.50;2068436;28;2070;-69
2024/02/14 04:10:56;;;;;;;;;;;;;;;19.49;48.77;101277.00;2070674;28;2141;-61
2024/02/14 04:11:58;;;;;;;;;;;;;;;19.48;48.78;101279.16;2067613;28;2085;-62
2024/02/14 04:12:59;;;;;;;;;;;;;;;19.49;48.96;101285.63;2069366;28;2148;-61
2024/02/14 04:14:01;;;;;;;;;;;;;;;19.48;48.90;101284.88;2070556;28;1663;-64
2024/02/14 04:15:03;;;;;;;;;;;;;;;19.49;48.84;101280.63;2069899;28;2173;-65
2024/02/14 04:16:04;;;;;;;;;;;;;;;19.50;48.83;101282.13;2070592;28;2443;-64
2024/02/14 04:17:07;;;;;;;;;;;;;;;19.49;48.78;101283.50;2067435;28;2204;-64
2024/02/14 04:18:09;;;;;;;;;;;;;;;19.48;48.77;101282.03;2071362;28;1471;-65
2024/02/14 04:19:12;;;;;;;;;;;;;;;19.48;48.80;101287.75;2070959;28;1644;-64
2024/02/14 04:20:14;;;;;;;;;;;;;;;19.49;48.89;101280.63;2067214;28;2034;-65
2024/02/14 04:21:16;;;;;;;;;;;;;;;19.48;48.87;101282.03;2068813;28;1851;-65
2024/02/14 04:22:17;;;;;;;;;;;;;;;19.46;48.79;101273.28;2068779;28;2082;-63
2024/02/14 04:23:19;;;;;;;;;;;;;;;19.47;48.81;101280.53;2068510;28;2094;-64
2024/02/14 04:24:20;;;;;;;;;;;;;;;19.48;48.95;101276.28;2071241;28;2144;-64
2024/02/14 04:25:22;;;;;;;;;;;;;;;19.48;48.85;101276.28;2069066;28;2102;-64
2024/02/14 04:26:24;;;;;;;;;;;;;;;19.48;48.83;101282.03;2071001;28;1776;-64
2024/02/14 04:27:25;;;;;;;;;;;;;;;19.49;48.92;101274.88;2069213;28;2033;-64
2024/02/14 04:28:27;;;;;;;;;;;;;;;19.49;48.89;101277.00;2070535;28;1573;-64
2024/02/14 04:29:30;;;;;;;;;;;;;;;19.48;48.77;101273.41;2067323;28;1889;-64
2024/02/14 04:30:31;;;;;;;;;;;;;;;19.49;48.81;101266.25;2068720;28;6283;-64
2024/02/14 04:31:33;;;;;;;;;;;;;;;19.49;48.90;101279.88;2068229;28;1648;-64
2024/02/14 04:32:34;;;;;;;;;;;;;;;19.49;48.80;101277.75;2068775;28;1648;-64
2024/02/14 04:33:36;;;;;;;;;;;;;;;19.49;48.78;101274.88;2071187;28;1616;-65
2024/02/14 04:34:39;;;;;;;;;;;;;;;19.50;48.76;101276.38;2069083;28;2198;-64
2024/02/14 04:35:40;;;;;;;;;;;;;;;19.51;48.70;101277.13;2070424;28;2018;-64
2024/02/14 04:36:42;;;;;;;;;;;;;;;19.51;48.78;101269.25;2067196;28;1980;-65
2024/02/14 04:37:46;;;;;;;;;;;;;;;19.51;48.83;101275.00;2068366;28;1637;-64
2024/02/14 04:38:48;;;;;;;;;;;;;;;19.51;48.87;101275.00;2066392;28;2046;-65
2024/02/14 04:39:49;;;;;;;;;;;;;;;19.52;48.80;101270.75;2065439;28;1601;-64
2024/02/14 04:40:52;;;;;;;;;;;;;;;19.52;48.76;101273.63;2070780;28;2840;-64
2024/02/14 04:41:54;;;;;;;;;;;;;;;19.52;48.71;101270.75;2069605;28;1703;-65
2024/02/14 04:43:02;;;;;;;;;;;;;;;19.52;48.70;101275.78;2070865;28;1807;-64
2024/02/14 04:44:06;;;;;;;;;;;;;;;19.52;48.66;101276.50;2070715;28;2249;-64
2024/02/14 04:45:08;;;;;;;;;;;;;;;19.52;48.76;101270.75;2069785;28;2042;-64
2024/02/14 04:46:09;;;;;;;;;;;;;;;19.51;48.73;101269.25;2068983;28;2112;-64
2024/02/14 04:47:11;;;;;;;;;;;;;;;19.51;48.73;101269.25;2070162;28;1525;-65
2024/02/14 04:48:12;;;;;;;;;;;;;;;19.53;48.69;101272.25;2071911;28;1917;-64
2024/02/14 04:49:14;;;;;;;;;;;;;;;19.51;48.76;101263.50;2066128;28;2120;-65
2024/02/14 04:50:16;;;;;;;;;;;;;;;19.51;48.85;101272.13;2068134;28;2326;-64
2024/02/14 04:51:18;;;;;;;;;;;;;;;19.51;48.73;101272.13;2071438;28;1929;-64
2024/02/14 04:52:19;;;;;;;;;;;;;;;19.51;48.86;101272.13;2071867;28;1795;-64
2024/02/14 04:53:20;;;;;;;;;;;;;;;19.50;48.88;101273.53;2068678;28;2093;-64
2024/02/14 04:54:22;;;;;;;;;;;;;;;19.51;48.89;101265.66;2070875;28;2346;-64
2024/02/14 04:55:23;;;;;;;;;;;;;;;19.50;48.87;101261.28;2070211;28;2151;-65
2024/02/14 04:56:26;;;;;;;;;;;;;;;19.51;48.84;101257.75;2069385;28;2244;-65
2024/02/14 04:57:27;;;;;;;;;;;;;;;19.50;48.88;101259.16;2067539;28;2277;-64
2024/02/14 04:58:28;;;;;;;;;;;;;;;19.50;48.82;101256.28;2068003;28;2488;-64
2024/02/14 04:59:30;;;;;;;;;;;;;;;19.50;48.88;101256.28;2068486;28;2337;-64
2024/02/14 05:00:31;;;;;;;;;;;;;;;19.50;48.76;101256.28;2066322;28;6010;-65
2024/02/14 05:01:33;;;;;;;;;;;;;;;19.51;48.60;101252.03;2067671;28;2137;-64
2024/02/14 05:02:34;;;;;;;;;;;;;;;19.50;48.87;101244.78;2066032;28;2256;-66
2024/02/14 05:03:36;;;;;;;;;;;;;;;19.50;48.91;101241.94;2071299;28;2448;-65
2024/02/14 05:04:39;;;;;;;;;;;;;;;19.51;48.77;101249.16;2068495;28;2207;-65
2024/02/14 05:05:40;;;;;;;;;;;;;;;19.51;48.75;101240.53;2067607;28;2139;-65
2024/02/14 05:06:42;;;;;;;;;;;;;;;19.52;48.90;101247.03;2069084;28;2153;-65
2024/02/14 05:07:44;;;;;;;;;;;;;;;19.53;48.81;101243.53;2068287;28;2169;-65
2024/02/14 05:08:45;;;;;;;;;;;;;;;19.53;48.91;101237.78;2070049;28;1635;-64
2024/02/14 05:09:50;;;;;;;;;;;;;;;19.53;48.77;101234.16;2069685;28;2117;-64
2024/02/14 05:10:51;;;;;;;;;;;;;;;19.53;48.83;101237.78;2066918;28;2060;-64
2024/02/14 05:11:52;;;;;;;;;;;;;;;19.54;48.73;101238.50;2068081;28;2113;-64
2024/02/14 05:12:54;;;;;;;;;;;;;;;19.54;48.76;101229.91;2070180;28;2153;-64
2024/02/14 05:13:55;;;;;;;;;;;;;;;19.53;48.75;101232.03;2066922;28;2042;-65
2024/02/14 05:14:57;;;;;;;;;;;;;;;19.54;48.70;101239.28;2069527;28;2164;-65
2024/02/14 05:16:02;;;;;;;;;;;;;;;19.54;48.83;101233.53;2067664;28;2074;-65
2024/02/14 05:17:04;;;;;;;;;;;;;;;19.55;48.66;101234.28;2069952;28;1918;-64
2024/02/14 05:18:06;;;;;;;;;;;;;;;19.56;48.85;101242.28;2068592;28;1676;-65
2024/02/14 05:19:08;;;;;;;;;;;;;;;19.55;48.86;101235.03;2069399;28;2181;-64
2024/02/14 05:20:09;;;;;;;;;;;;;;;19.55;48.84;101235.03;2066623;28;2143;-64
2024/02/14 05:21:11;;;;;;;;;;;;;;;19.54;48.73;101227.78;2070337;28;2411;-65
2024/02/14 05:22:12;;;;;;;;;;;;;;;19.53;48.71;101226.28;2067886;28;2131;-65
2024/02/14 05:23:13;;;;;;;;;;;;;;;19.55;48.59;101220.66;2071199;28;1757;-65